sensor_id;sensor_type;location;lat;lon;timestamp;pressure;altitude;pressure_sealevel;temperature;humidity
18167;BME280;9208;42.688;23.404;2023-04-10T00:01:18;95624.44;;;8.60;100.00
18167;BME280;9208;42.688;23.404;2023-04-10T00:03:43;95620.16;;;8.68;100.00
18167;BME280;9208;42.688;23.404;2023-04-10T00:06:09;95622.31;;;8.64;100.00
18167;BME280;9208;42.688;23.404;2023-04-10T00:08:34;95618.97;;;8.60;100.00
18167;BME280;9208;42.688;23.404;2023-04-10T00:11:00;95615.34;;;8.63;100.00
18167;BME280;9208;42.688;23.404;2023-04-10T00:13:25;95610.00;;;8.60;100.00
18167;BME280;9208;42.688;23.404;2023-04-10T00:15:51;95613.66;;;8.66;100.00
18167;BME280;9208;42.688;23.404;2023-04-10T00:18:16;95617.72;;;8.70;100.00
18167;BME280;9208;42.688;23.404;2023-04-10T00:20:42;95615.63;;;8.65;100.00
18167;BME280;9208;42.688;23.404;2023-04-10T00:23:07;95613.94;;;8.68;100.00
18167;BME280;9208;42.688;23.404;2023-04-10T00:25:33;95602.59;;;8.60;100.00
18167;BME280;9208;42.688;23.404;2023-04-10T00:27:58;95609.91;;;8.54;100.00
18167;BME280;9208;42.688;23.404;2023-04-10T00:30:24;95602.63;;;8.51;100.00
18167;BME280;9208;42.688;23.404;2023-04-10T00:32:52;95613.06;;;8.62;100.00
18167;BME280;9208;42.688;23.404;2023-04-10T00:35:17;95607.72;;;8.67;100.00
18167;BME280;9208;42.688;23.404;2023-04-10T00:37:43;95608.78;;;8.70;100.00
18167;BME280;9208;42.688;23.404;2023-04-10T00:40:08;95592.06;;;8.68;100.00
18167;BME280;9208;42.688;23.404;2023-04-10T00:42:34;95593.59;;;8.69;100.00
18167;BME280;9208;42.688;23.404;2023-04-10T00:45:00;95593.59;;;8.69;100.00
18167;BME280;9208;42.688;23.404;2023-04-10T00:47:26;95596.03;;;8.67;100.00
18167;BME280;9208;42.688;23.404;2023-04-10T00:49:52;95591.34;;;8.67;100.00
18167;BME280;9208;42.688;23.404;2023-04-10T00:52:18;95592.66;;;8.72;100.00
18167;BME280;9208;42.688;23.404;2023-04-10T00:54:43;95589.16;;;8.71;100.00
18167;BME280;9208;42.688;23.404;2023-04-10T00:57:10;95584.50;;;8.63;100.00
18167;BME280;9208;42.688;23.404;2023-04-10T00:59:35;95584.88;;;8.79;100.00
18167;BME280;9208;42.688;23.404;2023-04-10T01:02:01;95575.78;;;8.82;100.00
18167;BME280;9208;42.688;23.404;2023-04-10T01:04:28;95584.66;;;8.92;100.00
18167;BME280;9208;42.688;23.404;2023-04-10T01:06:58;95575.41;;;8.89;100.00
18167;BME280;9208;42.688;23.404;2023-04-10T01:12:10;95567.94;;;8.99;100.00
18167;BME280;9208;42.688;23.404;2023-04-10T01:17:45;95568.13;;;8.95;100.00
18167;BME280;9208;42.688;23.404;2023-04-10T01:20:18;95567.97;;;8.90;100.00
18167;BME280;9208;42.688;23.404;2023-04-10T01:23:11;95569.22;;;8.89;100.00
18167;BME280;9208;42.688;23.404;2023-04-10T01:25:55;95567.06;;;8.93;100.00
18167;BME280;9208;42.688;23.404;2023-04-10T01:31:01;95563.63;;;8.83;100.00
18167;BME280;9208;42.688;23.404;2023-04-10T01:33:37;95567.41;;;8.86;100.00
18167;BME280;9208;42.688;23.404;2023-04-10T01:36:05;95564.66;;;8.86;100.00
18167;BME280;9208;42.688;23.404;2023-04-10T01:38:32;95569.94;;;8.89;100.00
18167;BME280;9208;42.688;23.404;2023-04-10T01:40:58;95568.66;;;8.76;100.00
18167;BME280;9208;42.688;23.404;2023-04-10T01:43:25;95573.53;;;8.72;100.00
18167;BME280;9208;42.688;23.404;2023-04-10T01:45:54;95564.28;;;8.69;100.00
18167;BME280;9208;42.688;23.404;2023-04-10T01:48:21;95563.09;;;8.61;100.00
18167;BME280;9208;42.688;23.404;2023-04-10T01:50:47;95571.03;;;8.59;100.00
18167;BME280;9208;42.688;23.404;2023-04-10T01:53:13;95575.25;;;8.60;100.00
18167;BME280;9208;42.688;23.404;2023-04-10T01:55:40;95571.31;;;8.61;100.00
18167;BME280;9208;42.688;23.404;2023-04-10T01:58:06;95573.72;;;8.68;100.00
18167;BME280;9208;42.688;23.404;2023-04-10T02:00:41;95576.41;;;8.77;100.00
18167;BME280;9208;42.688;23.404;2023-04-10T02:03:08;95563.78;;;8.80;100.00
18167;BME280;9208;42.688;23.404;2023-04-10T02:08:30;95576.47;;;8.92;100.00
18167;BME280;9208;42.688;23.404;2023-04-10T02:11:14;95567.34;;;8.95;100.00
18167;BME280;9208;42.688;23.404;2023-04-10T02:13:42;95558.97;;;8.98;100.00
18167;BME280;9208;42.688;23.404;2023-04-10T02:16:08;95556.59;;;8.91;100.00
18167;BME280;9208;42.688;23.404;2023-04-10T02:18:36;95552.22;;;8.85;100.00
18167;BME280;9208;42.688;23.404;2023-04-10T02:21:02;95551.16;;;8.82;100.00
18167;BME280;9208;42.688;23.404;2023-04-10T02:23:28;95545.13;;;8.78;100.00
18167;BME280;9208;42.688;23.404;2023-04-10T02:25:54;95545.25;;;8.84;100.00
18167;BME280;9208;42.688;23.404;2023-04-10T02:28:22;95532.22;;;8.79;100.00
18167;BME280;9208;42.688;23.404;2023-04-10T02:30:48;95539.50;;;8.73;100.00
18167;BME280;9208;42.688;23.404;2023-04-10T02:33:13;95540.75;;;8.72;100.00
18167;BME280;9208;42.688;23.404;2023-04-10T02:35:39;95538.78;;;8.72;100.00
18167;BME280;9208;42.688;23.404;2023-04-10T02:38:04;95538.19;;;8.68;100.00
18167;BME280;9208;42.688;23.404;2023-04-10T02:40:30;95529.22;;;8.68;100.00
18167;BME280;9208;42.688;23.404;2023-04-10T02:42:55;95526.16;;;8.75;100.00
18167;BME280;9208;42.688;23.404;2023-04-10T02:45:21;95523.25;;;8.78;100.00
18167;BME280;9208;42.688;23.404;2023-04-10T02:47:46;95528.06;;;8.83;100.00
18167;BME280;9208;42.688;23.404;2023-04-10T02:50:12;95523.84;;;8.82;100.00
18167;BME280;9208;42.688;23.404;2023-04-10T02:52:37;95524.13;;;8.84;100.00
18167;BME280;9208;42.688;23.404;2023-04-10T02:55:03;95516.81;;;8.90;100.00
18167;BME280;9208;42.688;23.404;2023-04-10T02:57:30;95527.75;;;8.90;100.00
18167;BME280;9208;42.688;23.404;2023-04-10T02:59:55;95518.78;;;8.90;100.00
18167;BME280;9208;42.688;23.404;2023-04-10T03:02:22;95521.84;;;8.83;100.00
18167;BME280;9208;42.688;23.404;2023-04-10T03:04:47;95514.28;;;8.78;100.00
18167;BME280;9208;42.688;23.404;2023-04-10T03:07:13;95518.69;;;8.75;100.00
18167;BME280;9208;42.688;23.404;2023-04-10T03:09:38;95515.22;;;8.75;100.00
18167;BME280;9208;42.688;23.404;2023-04-10T03:12:03;95512.41;;;8.60;100.00
18167;BME280;9208;42.688;23.404;2023-04-10T03:14:29;95516.16;;;8.72;100.00
18167;BME280;9208;42.688;23.404;2023-04-10T03:16:54;95517.06;;;8.69;100.00
18167;BME280;9208;42.688;23.404;2023-04-10T03:19:20;95520.59;;;8.60;100.00
18167;BME280;9208;42.688;23.404;2023-04-10T03:21:45;95518.00;;;8.66;100.00
18167;BME280;9208;42.688;23.404;2023-04-10T03:24:11;95520.69;;;8.75;100.00
18167;BME280;9208;42.688;23.404;2023-04-10T03:26:37;95527.06;;;8.72;100.00
18167;BME280;9208;42.688;23.404;2023-04-10T03:29:02;95526.91;;;8.75;100.00
18167;BME280;9208;42.688;23.404;2023-04-10T03:31:28;95528.00;;;8.69;100.00
18167;BME280;9208;42.688;23.404;2023-04-10T03:33:53;95528.75;;;8.69;100.00
18167;BME280;9208;42.688;23.404;2023-04-10T03:36:19;95530.41;;;8.76;100.00
18167;BME280;9208;42.688;23.404;2023-04-10T03:38:45;95526.44;;;8.44;100.00
18167;BME280;9208;42.688;23.404;2023-04-10T03:41:10;95522.28;;;8.07;100.00
18167;BME280;9208;42.688;23.404;2023-04-10T03:43:36;95534.44;;;8.06;100.00
18167;BME280;9208;42.688;23.404;2023-04-10T03:46:01;95529.13;;;8.12;100.00
18167;BME280;9208;42.688;23.404;2023-04-10T03:48:27;95538.81;;;8.13;100.00
18167;BME280;9208;42.688;23.404;2023-04-10T03:50:54;95540.16;;;8.17;100.00
18167;BME280;9208;42.688;23.404;2023-04-10T03:53:25;95541.38;;;8.16;100.00
18167;BME280;9208;42.688;23.404;2023-04-10T03:55:51;95544.09;;;8.16;100.00
18167;BME280;9208;42.688;23.404;2023-04-10T03:58:17;95540.31;;;8.23;100.00
18167;BME280;9208;42.688;23.404;2023-04-10T04:00:43;95539.88;;;8.24;100.00
18167;BME280;9208;42.688;23.404;2023-04-10T04:03:09;95546.84;;;8.25;100.00
18167;BME280;9208;42.688;23.404;2023-04-10T04:05:34;95549.75;;;8.13;100.00
18167;BME280;9208;42.688;23.404;2023-04-10T04:08:00;95547.47;;;8.20;100.00
18167;BME280;9208;42.688;23.404;2023-04-10T04:10:25;95548.22;;;8.21;100.00
18167;BME280;9208;42.688;23.404;2023-04-10T04:12:50;95551.56;;;8.25;100.00
18167;BME280;9208;42.688;23.404;2023-04-10T04:15:16;95553.53;;;8.24;100.00
18167;BME280;9208;42.688;23.404;2023-04-10T04:17:42;95552.47;;;8.22;100.00
18167;BME280;9208;42.688;23.404;2023-04-10T04:20:08;95548.53;;;8.23;100.00
18167;BME280;9208;42.688;23.404;2023-04-10T04:22:33;95558.53;;;8.17;100.00
18167;BME280;9208;42.688;23.404;2023-04-10T04:24:58;95545.19;;;8.10;100.00
18167;BME280;9208;42.688;23.404;2023-04-10T04:27:24;95548.97;;;8.12;100.00
18167;BME280;9208;42.688;23.404;2023-04-10T04:29:49;95555.47;;;8.15;100.00
18167;BME280;9208;42.688;23.404;2023-04-10T04:32:15;95550.34;;;8.17;100.00
18167;BME280;9208;42.688;23.404;2023-04-10T04:34:40;95545.50;;;8.21;100.00
18167;BME280;9208;42.688;23.404;2023-04-10T04:37:06;95553.69;;;8.21;100.00
18167;BME280;9208;42.688;23.404;2023-04-10T04:39:31;95558.72;;;8.22;100.00
18167;BME280;9208;42.688;23.404;2023-04-10T04:41:56;95562.63;;;8.21;100.00
18167;BME280;9208;42.688;23.404;2023-04-10T04:44:22;95557.47;;;8.14;100.00
18167;BME280;9208;42.688;23.404;2023-04-10T04:46:47;95561.44;;;8.13;100.00
18167;BME280;9208;42.688;23.404;2023-04-10T04:49:13;95563.69;;;8.15;100.00
18167;BME280;9208;42.688;23.404;2023-04-10T04:51:38;95566.88;;;8.13;100.00
18167;BME280;9208;42.688;23.404;2023-04-10T04:54:04;95565.22;;;8.25;100.00
18167;BME280;9208;42.688;23.404;2023-04-10T04:56:29;95568.53;;;8.29;100.00
18167;BME280;9208;42.688;23.404;2023-04-10T04:58:55;95579.75;;;8.31;100.00
18167;BME280;9208;42.688;23.404;2023-04-10T05:01:20;95575.94;;;8.37;100.00
18167;BME280;9208;42.688;23.404;2023-04-10T05:03:46;95573.03;;;8.41;100.00
18167;BME280;9208;42.688;23.404;2023-04-10T05:06:11;95573.81;;;8.41;100.00
18167;BME280;9208;42.688;23.404;2023-04-10T05:08:41;95570.34;;;8.32;100.00
18167;BME280;9208;42.688;23.404;2023-04-10T05:11:06;95577.47;;;8.29;100.00
18167;BME280;9208;42.688;23.404;2023-04-10T05:13:32;95574.91;;;8.35;100.00
18167;BME280;9208;42.688;23.404;2023-04-10T05:15:57;95572.34;;;8.31;100.00
18167;BME280;9208;42.688;23.404;2023-04-10T05:18:23;95570.19;;;8.26;100.00
18167;BME280;9208;42.688;23.404;2023-04-10T05:20:48;95570.47;;;8.37;100.00
18167;BME280;9208;42.688;23.404;2023-04-10T05:23:15;95570.78;;;8.39;100.00
18167;BME280;9208;42.688;23.404;2023-04-10T05:25:41;95567.72;;;8.46;100.00
18167;BME280;9208;42.688;23.404;2023-04-10T05:28:06;95571.06;;;8.50;100.00
18167;BME280;9208;42.688;23.404;2023-04-10T05:30:32;95570.88;;;8.54;100.00
18167;BME280;9208;42.688;23.404;2023-04-10T05:32:57;95564.78;;;8.59;100.00
18167;BME280;9208;42.688;23.404;2023-04-10T05:35:25;95570.38;;;8.64;100.00
18167;BME280;9208;42.688;23.404;2023-04-10T05:37:51;95574.41;;;8.78;100.00
18167;BME280;9208;42.688;23.404;2023-04-10T05:40:16;95570.91;;;8.86;100.00
18167;BME280;9208;42.688;23.404;2023-04-10T05:42:42;95581.66;;;8.90;100.00
18167;BME280;9208;42.688;23.404;2023-04-10T05:45:08;95577.81;;;8.96;100.00
18167;BME280;9208;42.688;23.404;2023-04-10T05:47:33;95580.22;;;9.03;100.00
18167;BME280;9208;42.688;23.404;2023-04-10T05:49:59;95582.16;;;9.12;100.00
18167;BME280;9208;42.688;23.404;2023-04-10T05:52:24;95583.38;;;9.11;100.00
18167;BME280;9208;42.688;23.404;2023-04-10T05:54:49;95582.84;;;9.21;100.00
18167;BME280;9208;42.688;23.404;2023-04-10T05:57:16;95585.22;;;9.28;100.00
18167;BME280;9208;42.688;23.404;2023-04-10T05:59:41;95586.09;;;9.34;100.00
18167;BME280;9208;42.688;23.404;2023-04-10T06:02:07;95586.69;;;9.38;100.00
18167;BME280;9208;42.688;23.404;2023-04-10T06:04:32;95582.75;;;9.39;100.00
18167;BME280;9208;42.688;23.404;2023-04-10T06:06:58;95587.38;;;9.48;100.00
18167;BME280;9208;42.688;23.404;2023-04-10T06:09:23;95583.72;;;9.51;100.00
18167;BME280;9208;42.688;23.404;2023-04-10T06:11:49;95584.84;;;9.59;100.00
18167;BME280;9208;42.688;23.404;2023-04-10T06:14:17;95590.00;;;9.66;100.00
18167;BME280;9208;42.688;23.404;2023-04-10T06:16:43;95582.34;;;9.70;100.00
18167;BME280;9208;42.688;23.404;2023-04-10T06:19:08;95584.16;;;9.73;100.00
18167;BME280;9208;42.688;23.404;2023-04-10T06:21:34;95584.25;;;9.78;100.00
18167;BME280;9208;42.688;23.404;2023-04-10T06:23:59;95586.06;;;9.81;100.00
18167;BME280;9208;42.688;23.404;2023-04-10T06:26:25;95581.06;;;9.80;100.00
18167;BME280;9208;42.688;23.404;2023-04-10T06:28:51;95582.94;;;9.88;100.00
18167;BME280;9208;42.688;23.404;2023-04-10T06:31:19;95578.03;;;9.92;100.00
18167;BME280;9208;42.688;23.404;2023-04-10T06:33:48;95584.66;;;10.00;100.00
18167;BME280;9208;42.688;23.404;2023-04-10T06:36:14;95579.00;;;10.04;100.00
18167;BME280;9208;42.688;23.404;2023-04-10T06:38:44;95582.66;;;10.10;100.00
18167;BME280;9208;42.688;23.404;2023-04-10T06:41:09;95581.69;;;10.13;100.00
18167;BME280;9208;42.688;23.404;2023-04-10T06:43:38;95583.50;;;10.16;100.00
18167;BME280;9208;42.688;23.404;2023-04-10T06:46:04;95590.00;;;10.18;100.00
18167;BME280;9208;42.688;23.404;2023-04-10T06:48:30;95597.88;;;10.26;100.00
18167;BME280;9208;42.688;23.404;2023-04-10T06:50:56;95603.81;;;10.39;100.00
18167;BME280;9208;42.688;23.404;2023-04-10T06:53:24;95598.03;;;10.37;100.00
18167;BME280;9208;42.688;23.404;2023-04-10T06:55:50;95601.09;;;10.39;100.00
18167;BME280;9208;42.688;23.404;2023-04-10T06:58:15;95602.69;;;10.45;100.00
18167;BME280;9208;42.688;23.404;2023-04-10T07:00:41;95593.91;;;10.41;100.00
18167;BME280;9208;42.688;23.404;2023-04-10T07:03:07;95597.94;;;10.46;100.00
18167;BME280;9208;42.688;23.404;2023-04-10T07:05:32;95604.47;;;10.48;100.00
18167;BME280;9208;42.688;23.404;2023-04-10T07:07:58;95584.91;;;10.41;100.00
18167;BME280;9208;42.688;23.404;2023-04-10T07:10:23;95598.63;;;10.55;100.00
18167;BME280;9208;42.688;23.404;2023-04-10T07:12:49;95606.06;;;10.55;100.00
18167;BME280;9208;42.688;23.404;2023-04-10T07:15:14;95594.53;;;10.51;100.00
18167;BME280;9208;42.688;23.404;2023-04-10T07:17:43;95602.41;;;10.58;100.00
18167;BME280;9208;42.688;23.404;2023-04-10T07:20:09;95602.28;;;10.67;100.00
18167;BME280;9208;42.688;23.404;2023-04-10T07:22:34;95606.16;;;10.75;100.00
18167;BME280;9208;42.688;23.404;2023-04-10T07:25:00;95608.50;;;10.82;100.00
18167;BME280;9208;42.688;23.404;2023-04-10T07:27:26;95609.28;;;10.82;100.00
18167;BME280;9208;42.688;23.404;2023-04-10T07:29:54;95607.94;;;10.78;100.00
18167;BME280;9208;42.688;23.404;2023-04-10T07:32:20;95609.47;;;10.79;100.00
18167;BME280;9208;42.688;23.404;2023-04-10T07:34:46;95602.47;;;10.78;100.00
18167;BME280;9208;42.688;23.404;2023-04-10T07:40:23;95604.16;;;10.90;100.00
18167;BME280;9208;42.688;23.404;2023-04-10T07:42:49;95608.50;;;10.96;100.00
18167;BME280;9208;42.688;23.404;2023-04-10T07:45:14;95612.06;;;11.02;100.00
18167;BME280;9208;42.688;23.404;2023-04-10T07:47:40;95606.47;;;11.11;100.00
18167;BME280;9208;42.688;23.404;2023-04-10T07:50:06;95608.34;;;11.20;100.00
18167;BME280;9208;42.688;23.404;2023-04-10T07:52:31;95612.88;;;11.23;100.00
18167;BME280;9208;42.688;23.404;2023-04-10T07:55:00;95614.19;;;11.27;99.04
18167;BME280;9208;42.688;23.404;2023-04-10T07:57:26;95611.91;;;11.26;98.05
18167;BME280;9208;42.688;23.404;2023-04-10T07:59:51;95609.66;;;11.24;98.48
18167;BME280;9208;42.688;23.404;2023-04-10T08:02:17;95606.91;;;11.24;98.84
18167;BME280;9208;42.688;23.404;2023-04-10T08:04:42;95605.41;;;11.23;99.25
18167;BME280;9208;42.688;23.404;2023-04-10T08:07:07;95598.19;;;11.26;99.25
18167;BME280;9208;42.688;23.404;2023-04-10T08:09:33;95600.47;;;11.27;98.89
18167;BME280;9208;42.688;23.404;2023-04-10T08:11:58;95602.75;;;11.29;98.52
18167;BME280;9208;42.688;23.404;2023-04-10T08:14:24;95606.03;;;11.33;98.84
18167;BME280;9208;42.688;23.404;2023-04-10T08:16:50;95593.81;;;11.34;98.54
18167;BME280;9208;42.688;23.404;2023-04-10T08:19:16;95590.78;;;11.32;97.95
18167;BME280;9208;42.688;23.404;2023-04-10T08:21:41;95602.09;;;11.39;98.69
18167;BME280;9208;42.688;23.404;2023-04-10T08:24:06;95603.91;;;11.42;98.64
18167;BME280;9208;42.688;23.404;2023-04-10T08:26:32;95600.69;;;11.44;99.30
18167;BME280;9208;42.688;23.404;2023-04-10T08:28:58;95597.72;;;11.47;98.64
18167;BME280;9208;42.688;23.404;2023-04-10T08:31:24;95599.22;;;11.48;98.85
18167;BME280;9208;42.688;23.404;2023-04-10T08:33:51;95598.84;;;11.55;98.65
18167;BME280;9208;42.688;23.404;2023-04-10T08:36:16;95606.88;;;11.59;96.21
18167;BME280;9208;42.688;23.404;2023-04-10T08:38:45;95614.31;;;11.73;94.60
18167;BME280;9208;42.688;23.404;2023-04-10T08:41:11;95609.78;;;11.70;95.14
18167;BME280;9208;42.688;23.404;2023-04-10T08:43:37;95611.16;;;11.80;94.27
18167;BME280;9208;42.688;23.404;2023-04-10T08:46:03;95601.97;;;11.83;94.43
18167;BME280;9208;42.688;23.404;2023-04-10T08:48:37;95599.91;;;11.78;94.47
18167;BME280;9208;42.688;23.404;2023-04-10T08:51:03;95605.03;;;11.90;92.14
18167;BME280;9208;42.688;23.404;2023-04-10T08:53:36;95631.91;;;12.01;89.04
18167;BME280;9208;42.688;23.404;2023-04-10T08:56:05;95617.31;;;11.95;88.93
18167;BME280;9208;42.688;23.404;2023-04-10T08:58:31;95621.16;;;12.03;88.76
18167;BME280;9208;42.688;23.404;2023-04-10T09:00:58;95623.66;;;12.01;87.84
18167;BME280;9208;42.688;23.404;2023-04-10T09:03:24;95618.22;;;11.86;87.71
18167;BME280;9208;42.688;23.404;2023-04-10T09:05:50;95607.38;;;11.77;88.69
18167;BME280;9208;42.688;23.404;2023-04-10T09:08:16;95592.88;;;11.77;89.53
18167;BME280;9208;42.688;23.404;2023-04-10T09:10:41;95594.13;;;11.76;89.95
18167;BME280;9208;42.688;23.404;2023-04-10T09:13:09;95595.63;;;11.77;88.66
18167;BME280;9208;42.688;23.404;2023-04-10T09:15:55;95587.38;;;11.77;88.33
18167;BME280;9208;42.688;23.404;2023-04-10T09:18:48;95596.81;;;11.70;88.38
18167;BME280;9208;42.688;23.404;2023-04-10T09:21:19;95585.81;;;11.70;89.60
18167;BME280;9208;42.688;23.404;2023-04-10T09:23:46;95581.34;;;11.73;90.05
18167;BME280;9208;42.688;23.404;2023-04-10T09:26:29;95590.44;;;11.79;88.99
18167;BME280;9208;42.688;23.404;2023-04-10T09:29:06;95588.50;;;11.85;88.84
18167;BME280;9208;42.688;23.404;2023-04-10T09:31:33;95594.41;;;11.78;87.86
18167;BME280;9208;42.688;23.404;2023-04-10T09:34:37;95598.19;;;11.80;87.30
18167;BME280;9208;42.688;23.404;2023-04-10T09:37:16;95593.44;;;11.81;87.48
18167;BME280;9208;42.688;23.404;2023-04-10T09:39:44;95599.84;;;11.72;86.69
18167;BME280;9208;42.688;23.404;2023-04-10T09:42:10;95596.41;;;11.77;86.53
18167;BME280;9208;42.688;23.404;2023-04-10T09:44:38;95589.41;;;11.76;86.36
18167;BME280;9208;42.688;23.404;2023-04-10T09:49:49;95589.72;;;11.84;86.02
18167;BME280;9208;42.688;23.404;2023-04-10T09:54:44;95589.59;;;11.93;86.19
18167;BME280;9208;42.688;23.404;2023-04-10T09:57:13;95593.03;;;11.88;85.30
18167;BME280;9208;42.688;23.404;2023-04-10T09:59:40;95593.69;;;12.03;84.50
18167;BME280;9208;42.688;23.404;2023-04-10T10:02:10;95573.13;;;12.18;86.06
18167;BME280;9208;42.688;23.404;2023-04-10T10:04:38;95573.88;;;12.19;85.01
18167;BME280;9208;42.688;23.404;2023-04-10T10:07:05;95580.09;;;12.14;84.05
18167;BME280;9208;42.688;23.404;2023-04-10T10:09:31;95590.84;;;12.17;83.84
18167;BME280;9208;42.688;23.404;2023-04-10T10:11:57;95573.19;;;12.24;84.02
18167;BME280;9208;42.688;23.404;2023-04-10T10:14:24;95568.47;;;12.30;83.76
18167;BME280;9208;42.688;23.404;2023-04-10T10:16:55;95554.63;;;12.44;84.88
18167;BME280;9208;42.688;23.404;2023-04-10T10:19:41;95567.19;;;12.51;84.06
18167;BME280;9208;42.688;23.404;2023-04-10T10:22:08;95557.06;;;12.68;84.55
18167;BME280;9208;42.688;23.404;2023-04-10T10:24:36;95578.38;;;12.73;83.14
18167;BME280;9208;42.688;23.404;2023-04-10T10:27:03;95581.81;;;12.68;81.00
18167;BME280;9208;42.688;23.404;2023-04-10T10:29:31;95582.34;;;12.72;81.32
18167;BME280;9208;42.688;23.404;2023-04-10T10:31:59;95570.38;;;12.75;81.81
18167;BME280;9208;42.688;23.404;2023-04-10T10:34:27;95566.16;;;12.79;81.41
18167;BME280;9208;42.688;23.404;2023-04-10T10:36:53;95571.25;;;12.92;81.43
18167;BME280;9208;42.688;23.404;2023-04-10T10:39:31;95587.50;;;12.90;79.81
18167;BME280;9208;42.688;23.404;2023-04-10T10:42:33;95588.97;;;12.85;78.80
18167;BME280;9208;42.688;23.404;2023-04-10T10:45:17;95538.69;;;12.54;83.00
18167;BME280;9208;42.688;23.404;2023-04-10T10:47:47;95527.41;;;12.21;83.50
18167;BME280;9208;42.688;23.404;2023-04-10T10:50:13;95522.03;;;12.06;83.94
18167;BME280;9208;42.688;23.404;2023-04-10T10:52:49;95522.94;;;11.98;83.53
18167;BME280;9208;42.688;23.404;2023-04-10T11:00:16;95536.16;;;11.94;81.97
18167;BME280;9208;42.688;23.404;2023-04-10T11:02:42;95527.75;;;12.03;81.11
18167;BME280;9208;42.688;23.404;2023-04-10T11:05:08;95525.84;;;12.14;79.85
18167;BME280;9208;42.688;23.404;2023-04-10T11:16:16;95533.44;;;12.25;78.90
18167;BME280;9208;42.688;23.404;2023-04-10T11:21:14;95462.88;;;12.11;86.61
18167;BME280;9208;42.688;23.404;2023-04-10T11:31:47;95483.00;;;11.97;83.93
18167;BME280;9208;42.688;23.404;2023-04-10T11:34:19;95464.31;;;12.06;86.03
18167;BME280;9208;42.688;23.404;2023-04-10T11:36:44;95462.34;;;12.07;84.61
18167;BME280;9208;42.688;23.404;2023-04-10T11:39:11;95489.69;;;12.21;82.63
18167;BME280;9208;42.688;23.404;2023-04-10T11:41:42;95476.22;;;12.23;83.69
18167;BME280;9208;42.688;23.404;2023-04-10T11:44:13;95496.28;;;12.35;81.94
18167;BME280;9208;42.688;23.404;2023-04-10T11:46:43;95489.13;;;12.43;82.67
18167;BME280;9208;42.688;23.404;2023-04-10T11:49:19;95507.88;;;12.44;82.35
18167;BME280;9208;42.688;23.404;2023-04-10T11:51:46;95529.66;;;12.48;78.37
18167;BME280;9208;42.688;23.404;2023-04-10T11:54:14;95536.78;;;12.34;77.99
18167;BME280;9208;42.688;23.404;2023-04-10T11:56:44;95519.31;;;12.37;79.00
18167;BME280;9208;42.688;23.404;2023-04-10T11:59:10;95501.63;;;12.44;80.32
18167;BME280;9208;42.688;23.404;2023-04-10T12:01:41;95507.94;;;12.50;80.34
18167;BME280;9208;42.688;23.404;2023-04-10T12:04:14;95500.34;;;12.39;81.51
18167;BME280;9208;42.688;23.404;2023-04-10T12:06:52;95449.84;;;12.37;87.06
18167;BME280;9208;42.688;23.404;2023-04-10T12:09:19;95383.28;;;12.27;94.64
18167;BME280;9208;42.688;23.404;2023-04-10T12:12:02;95363.56;;;11.92;99.64
18167;BME280;9208;42.688;23.404;2023-04-10T12:14:36;95382.34;;;11.43;100.00
18167;BME280;9208;42.688;23.404;2023-04-10T12:17:10;95451.50;;;10.87;100.00
18167;BME280;9208;42.688;23.404;2023-04-10T12:19:37;95455.78;;;10.53;100.00
18167;BME280;9208;42.688;23.404;2023-04-10T12:22:03;95447.53;;;10.33;100.00
18167;BME280;9208;42.688;23.404;2023-04-10T12:24:46;95455.69;;;10.13;100.00
18167;BME280;9208;42.688;23.404;2023-04-10T12:27:22;95446.69;;;9.83;100.00
18167;BME280;9208;42.688;23.404;2023-04-10T12:29:50;95445.00;;;9.57;100.00
18167;BME280;9208;42.688;23.404;2023-04-10T12:32:16;95444.72;;;9.69;100.00
18167;BME280;9208;42.688;23.404;2023-04-10T12:34:49;95440.75;;;9.70;100.00
18167;BME280;9208;42.688;23.404;2023-04-10T12:37:15;95448.03;;;9.73;100.00
18167;BME280;9208;42.688;23.404;2023-04-10T12:39:41;95462.84;;;9.81;100.00
18167;BME280;9208;42.688;23.404;2023-04-10T12:42:16;95459.56;;;9.92;100.00
18167;BME280;9208;42.688;23.404;2023-04-10T12:44:57;95451.25;;;10.01;100.00
18167;BME280;9208;42.688;23.404;2023-04-10T12:47:24;95439.66;;;10.06;100.00
18167;BME280;9208;42.688;23.404;2023-04-10T12:50:06;95442.75;;;10.13;100.00
18167;BME280;9208;42.688;23.404;2023-04-10T12:52:33;95443.88;;;10.22;100.00
18167;BME280;9208;42.688;23.404;2023-04-10T12:55:11;95433.19;;;10.23;100.00
18167;BME280;9208;42.688;23.404;2023-04-10T12:57:38;95428.25;;;10.27;100.00
18167;BME280;9208;42.688;23.404;2023-04-10T13:00:05;95430.88;;;10.37;100.00
18167;BME280;9208;42.688;23.404;2023-04-10T13:02:31;95428.88;;;10.52;100.00
18167;BME280;9208;42.688;23.404;2023-04-10T13:04:56;95427.78;;;10.64;100.00
18167;BME280;9208;42.688;23.404;2023-04-10T13:07:21;95425.81;;;10.64;100.00
18167;BME280;9208;42.688;23.404;2023-04-10T13:09:47;95418.19;;;10.74;100.00
18167;BME280;9208;42.688;23.404;2023-04-10T13:12:13;95414.53;;;10.62;100.00
18167;BME280;9208;42.688;23.404;2023-04-10T13:14:38;95413.81;;;10.62;100.00
18167;BME280;9208;42.688;23.404;2023-04-10T13:17:04;95412.78;;;10.79;100.00
18167;BME280;9208;42.688;23.404;2023-04-10T13:19:29;95408.63;;;10.84;100.00
18167;BME280;9208;42.688;23.404;2023-04-10T13:21:55;95404.28;;;10.97;100.00
18167;BME280;9208;42.688;23.404;2023-04-10T13:24:21;95401.72;;;11.14;100.00
18167;BME280;9208;42.688;23.404;2023-04-10T13:26:46;95397.47;;;11.33;100.00
18167;BME280;9208;42.688;23.404;2023-04-10T13:29:11;95398.03;;;11.42;100.00
18167;BME280;9208;42.688;23.404;2023-04-10T13:31:37;95397.34;;;11.47;100.00
18167;BME280;9208;42.688;23.404;2023-04-10T13:34:02;95405.56;;;11.67;100.00
18167;BME280;9208;42.688;23.404;2023-04-10T13:36:28;95400.31;;;11.69;100.00
18167;BME280;9208;42.688;23.404;2023-04-10T13:38:54;95404.63;;;11.76;100.00
18167;BME280;9208;42.688;23.404;2023-04-10T13:41:19;95399.06;;;11.70;100.00
18167;BME280;9208;42.688;23.404;2023-04-10T13:43:45;95400.44;;;11.80;100.00